EBJ weather

Esbjerg Airport
Esbjerg, South Denmark, Denmark

Public forecast

Using degrees Celsius for public forecast. Weather courtesy of forecast.io.

Current aviation weather report (METAR) for Esbjerg Airport

Retrieved 2019/10/14 14:20 UTC (0 seconds ago):

EKEB 141420Z AUTO 16002KT 9999 BKN092/// 13/09 Q1014

Aviation forecast (TAF) for Esbjerg Airport

Forecast is more than 12 hours old.

Retrieved 2015/09/18 18:00 UTC (4 years ago):

TAF EKEB 181707Z 1818/1822 24008KT 9999 SCT025 TEMPO 1818/1820 -SHRA SCT020CB